Time;durP1;ratioP1;P1;durP2;ratioP2;P2;SDS_P1;SDS_P2;PMS_P1;PMS_P2;Temp;Humidity;BMP_temperature;BMP_pressure;BME280_temperature;BME280_humidity;BME280_pressure;Samples;Min_cycle;Max_cycle;Signal;HPM_P1;HPM_P2
2022/07/16 00:01:40;;;;;;;1.87;1.30;;;17.10;99.90;;;;;;5027409;28;20234;-75
2022/07/16 00:04:25;;;;;;;4.13;1.60;;;17.10;99.90;;;;;;5033035;28;20184;-76
2022/07/16 00:07:09;;;;;;;2.83;1.30;;;17.10;99.90;;;;;;5025855;28;20266;-74
2022/07/16 00:09:53;;;;;;;6.40;1.60;;;17.00;99.90;;;;;;5027981;28;20206;-74
2022/07/16 00:12:37;;;;;;;3.23;1.40;;;17.00;99.90;;;;;;5028803;28;20242;-74
2022/07/16 00:15:21;;;;;;;3.30;1.53;;;17.00;99.90;;;;;;5025639;28;20702;-75
2022/07/16 00:21:09;;;;;;;2.57;1.60;;;16.90;99.90;;;;;;5027855;28;20186;-75
2022/07/16 00:23:53;;;;;;;1.77;1.50;;;16.80;99.90;;;;;;5030392;28;20202;-75
2022/07/16 00:26:37;;;;;;;1.50;1.40;;;16.80;99.90;;;;;;5026015;28;20222;-75
2022/07/16 00:29:22;;;;;;;3.20;1.70;;;16.80;99.90;;;;;;5021418;28;20196;-75
2022/07/16 00:32:06;;;;;;;3.13;1.60;;;16.70;99.90;;;;;;5021180;28;20336;-75
2022/07/16 00:34:50;;;;;;;2.63;1.80;;;16.70;99.90;;;;;;5028123;28;20207;-75
2022/07/16 00:37:34;;;;;;;2.33;1.50;;;16.70;99.90;;;;;;5027278;28;20302;-75
2022/07/16 00:40:18;;;;;;;3.37;2.43;;;16.60;99.90;;;;;;5029042;28;20179;-75
2022/07/16 00:43:02;;;;;;;2.47;1.50;;;16.60;99.90;;;;;;5023029;28;20215;-77
2022/07/16 00:45:46;;;;;;;2.70;1.53;;;16.50;99.90;;;;;;5026328;28;20223;-75
2022/07/16 00:48:30;;;;;;;2.70;1.60;;;16.50;99.90;;;;;;5024184;28;20192;-76
2022/07/16 00:51:15;;;;;;;1.53;1.40;;;16.50;99.90;;;;;;5026979;28;20187;-73
2022/07/16 00:54:00;;;;;;;1.77;1.40;;;16.50;99.90;;;;;;5025098;28;20277;-77
2022/07/16 00:56:45;;;;;;;3.63;1.87;;;16.40;99.90;;;;;;5022647;28;20219;-76
2022/07/16 00:59:29;;;;;;;2.60;1.43;;;16.40;99.90;;;;;;5026024;28;20206;-76
2022/07/16 01:02:13;;;;;;;2.20;1.47;;;16.40;99.90;;;;;;5029317;28;20211;-76
2022/07/16 01:04:57;;;;;;;1.93;1.73;;;16.40;99.90;;;;;;5021599;28;20243;-76
2022/07/16 01:07:43;;;;;;;2.33;1.47;;;16.40;99.90;;;;;;5022441;28;20284;-76
2022/07/16 01:10:28;;;;;;;6.53;1.60;;;16.40;99.90;;;;;;5025489;28;20210;-76
2022/07/16 01:13:14;;;;;;;3.83;1.37;;;16.40;99.90;;;;;;5031093;28;20314;-76
2022/07/16 01:15:58;;;;;;;1.80;1.30;;;16.40;99.90;;;;;;5029059;28;20219;-77
2022/07/16 01:18:43;;;;;;;2.93;1.40;;;16.40;99.90;;;;;;5029857;28;20178;-76
2022/07/16 01:21:28;;;;;;;2.20;1.47;;;16.40;99.90;;;;;;5026789;28;20188;-74
2022/07/16 01:24:12;;;;;;;1.77;1.57;;;16.40;99.90;;;;;;5023983;28;20189;-74
2022/07/16 01:26:56;;;;;;;2.63;1.60;;;16.40;99.90;;;;;;5019189;28;20703;-77
2022/07/16 01:29:40;;;;;;;1.63;1.20;;;16.40;99.90;;;;;;5029251;28;20183;-75
2022/07/16 01:32:24;;;;;;;4.53;1.57;;;16.40;99.90;;;;;;5023639;28;20550;-75
2022/07/16 01:35:08;;;;;;;2.57;1.53;;;16.40;99.90;;;;;;5029456;28;20569;-74
2022/07/16 01:37:52;;;;;;;2.13;1.50;;;16.40;99.90;;;;;;5027797;28;20288;-74
2022/07/16 01:40:37;;;;;;;3.10;1.40;;;16.40;99.90;;;;;;5027139;28;20188;-75
2022/07/16 01:43:24;;;;;;;1.60;1.50;;;16.40;99.90;;;;;;5024114;28;20260;-76
2022/07/16 01:46:08;;;;;;;1.40;1.30;;;16.40;99.90;;;;;;5029761;28;20210;-74
2022/07/16 01:48:53;;;;;;;1.87;1.60;;;16.40;99.90;;;;;;5028050;28;20207;-76
2022/07/16 01:51:37;;;;;;;2.83;1.50;;;16.40;99.90;;;;;;5028040;28;20191;-77
2022/07/16 01:54:22;;;;;;;2.10;1.70;;;16.40;99.90;;;;;;5027121;28;20651;-76
2022/07/16 01:57:07;;;;;;;1.73;1.33;;;16.40;99.90;;;;;;5026645;28;20231;-75
2022/07/16 01:59:51;;;;;;;4.93;1.20;;;16.40;99.90;;;;;;5024124;28;20204;-76
2022/07/16 02:02:35;;;;;;;3.37;1.50;;;16.50;99.90;;;;;;5017566;28;20194;-76
2022/07/16 02:05:19;;;;;;;1.33;1.23;;;16.50;99.90;;;;;;5033602;28;20183;-76
2022/07/16 02:08:05;;;;;;;1.47;1.17;;;16.50;99.90;;;;;;5030833;28;20194;-76
2022/07/16 02:10:49;;;;;;;4.33;1.20;;;16.50;99.90;;;;;;5025429;28;20555;-76
2022/07/16 02:13:34;;;;;;;4.33;1.63;;;16.50;99.90;;;;;;5031371;28;20195;-76
2022/07/16 02:16:18;;;;;;;1.90;1.40;;;16.50;99.90;;;;;;5024389;28;20227;-74
2022/07/16 02:19:02;;;;;;;1.40;1.30;;;16.60;99.90;;;;;;5019068;28;20218;-77
2022/07/16 02:21:47;;;;;;;3.17;1.50;;;16.50;99.90;;;;;;5031216;28;20182;-76
2022/07/16 02:24:31;;;;;;;3.73;1.30;;;16.60;99.90;;;;;;5029835;28;20250;-77
2022/07/16 02:27:15;;;;;;;4.03;1.67;;;16.60;99.90;;;;;;5024810;28;20218;-75
2022/07/16 02:30:00;;;;;;;1.40;1.03;;;16.60;99.90;;;;;;5026124;28;20258;-76
2022/07/16 02:32:44;;;;;;;2.33;1.60;;;16.60;99.90;;;;;;5031195;28;20206;-76
2022/07/16 02:35:29;;;;;;;2.50;1.20;;;16.60;99.90;;;;;;5027083;28;20241;-76
2022/07/16 02:38:14;;;;;;;8.17;1.40;;;16.60;99.90;;;;;;5030182;28;20246;-76
2022/07/16 02:40:59;;;;;;;2.23;1.53;;;16.60;99.90;;;;;;5022260;28;20226;-76
2022/07/16 02:43:43;;;;;;;3.57;1.47;;;16.60;99.90;;;;;;5038861;28;20188;-76
2022/07/16 02:46:27;;;;;;;2.70;1.77;;;16.60;99.90;;;;;;5021925;28;20219;-75
2022/07/16 02:49:11;;;;;;;3.67;2.03;;;16.60;99.90;;;;;;5027501;28;20678;-76
2022/07/16 02:51:55;;;;;;;4.63;2.10;;;16.70;99.90;;;;;;5028058;28;20227;-77
2022/07/16 02:54:40;;;;;;;4.27;2.23;;;16.50;99.90;;;;;;5031584;28;20195;-75
2022/07/16 02:57:25;;;;;;;6.53;2.40;;;16.40;99.90;;;;;;5024156;28;20269;-76
2022/07/16 03:00:12;;;;;;;6.07;2.60;;;16.20;99.90;;;;;;5022494;28;20184;-76
2022/07/16 03:02:57;;;;;;;2.73;2.30;;;16.10;99.90;;;;;;5024463;28;20238;-76
2022/07/16 03:05:41;;;;;;;3.20;2.20;;;16.00;99.90;;;;;;5031123;28;20265;-76
2022/07/16 03:08:26;;;;;;;2.47;2.23;;;15.90;99.90;;;;;;5024940;28;20203;-76
2022/07/16 03:11:10;;;;;;;3.00;2.40;;;15.90;99.90;;;;;;5028612;28;20209;-77
2022/07/16 03:13:54;;;;;;;2.83;2.30;;;15.80;99.90;;;;;;5038635;28;20203;-77
2022/07/16 03:16:39;;;;;;;4.83;2.50;;;15.80;99.90;;;;;;5019084;28;20274;-77
2022/07/16 03:19:23;;;;;;;2.67;2.27;;;15.70;99.90;;;;;;5028815;28;20178;-76
2022/07/16 03:22:07;;;;;;;4.23;2.50;;;15.70;99.90;;;;;;5027019;28;20191;-75
2022/07/16 03:24:51;;;;;;;5.93;2.50;;;15.60;99.90;;;;;;5025215;28;20191;-75
2022/07/16 03:27:36;;;;;;;3.87;2.87;;;15.50;99.90;;;;;;5033193;28;20190;-76
2022/07/16 03:30:20;;;;;;;3.13;2.73;;;15.50;99.90;;;;;;5030816;28;20207;-77
2022/07/16 03:33:04;;;;;;;3.97;3.03;;;15.50;99.90;;;;;;5020765;28;20265;-75
2022/07/16 03:35:48;;;;;;;3.33;2.73;;;15.50;99.90;;;;;;5028753;28;20350;-77
2022/07/16 03:41:37;;;;;;;4.63;3.20;;;15.40;99.90;;;;;;5025320;28;20195;-75
2022/07/16 03:44:21;;;;;;;5.30;3.10;;;15.40;99.90;;;;;;5023299;28;20203;-77
2022/07/16 03:47:06;;;;;;;4.20;3.23;;;15.40;99.90;;;;;;5024424;28;20659;-77
2022/07/16 03:49:51;;;;;;;4.97;3.00;;;15.40;99.90;;;;;;5024445;28;20182;-74
2022/07/16 03:52:35;;;;;;;4.30;3.50;;;15.30;99.90;;;;;;5026851;28;20183;-77
2022/07/16 03:55:19;;;;;;;3.70;3.30;;;15.30;99.90;;;;;;5023762;28;20188;-75
2022/07/16 03:58:03;;;;;;;6.27;3.67;;;15.30;99.90;;;;;;5016430;28;20247;-77
2022/07/16 04:00:48;;;;;;;4.47;3.60;;;15.30;99.90;;;;;;5018136;28;20224;-77
2022/07/16 04:03:33;;;;;;;6.03;3.27;;;15.30;99.90;;;;;;5024544;28;20223;-73
2022/07/16 04:06:17;;;;;;;5.17;3.83;;;15.30;99.90;;;;;;5024509;28;20211;-73
2022/07/16 04:09:02;;;;;;;6.03;3.63;;;15.30;99.90;;;;;;5021898;28;20568;-72
2022/07/16 04:11:46;;;;;;;4.70;3.90;;;15.20;99.90;;;;;;5024589;28;20215;-73
2022/07/16 04:14:30;;;;;;;4.17;3.23;;;15.20;99.90;;;;;;5019123;28;20231;-74
2022/07/16 04:17:14;;;;;;;5.47;4.17;;;15.20;99.90;;;;;;5030804;28;20219;-73
2022/07/16 04:19:58;;;;;;;8.63;3.27;;;15.20;99.90;;;;;;5015708;28;20187;-73
2022/07/16 04:22:42;;;;;;;4.27;3.40;;;15.20;99.90;;;;;;5022900;28;20196;-73
2022/07/16 04:25:26;;;;;;;4.53;3.77;;;15.20;99.90;;;;;;5023993;28;20187;-74
2022/07/16 04:28:10;;;;;;;5.47;3.80;;;15.20;99.90;;;;;;5032331;28;20241;-71
2022/07/16 04:30:55;;;;;;;4.90;3.60;;;15.20;99.90;;;;;;5022073;28;20252;-72
2022/07/16 04:33:39;;;;;;;5.37;3.77;;;15.20;99.90;;;;;;5020898;28;20242;-73
2022/07/16 04:36:23;;;;;;;7.07;3.70;;;15.20;99.90;;;;;;5024719;28;20366;-73
2022/07/16 04:39:07;;;;;;;5.13;3.83;;;15.20;99.90;;;;;;5035262;28;20187;-74
2022/07/16 04:41:51;;;;;;;4.20;3.70;;;15.20;99.90;;;;;;5024991;28;20210;-73
2022/07/16 04:44:35;;;;;;;3.53;3.20;;;15.20;99.90;;;;;;5011485;28;20244;-72
2022/07/16 04:47:20;;;;;;;4.10;3.60;;;15.20;99.90;;;;;;5020714;28;20238;-75
2022/07/16 04:50:06;;;;;;;4.00;3.47;;;15.20;99.90;;;;;;5025661;28;20191;-72
2022/07/16 04:52:50;;;;;;;5.33;3.83;;;15.30;99.90;;;;;;5024002;28;20553;-72
2022/07/16 04:55:34;;;;;;;4.47;3.90;;;15.30;99.90;;;;;;5022419;28;20210;-72
2022/07/16 04:58:18;;;;;;;7.00;4.07;;;15.30;99.90;;;;;;5024247;28;20261;-73
2022/07/16 05:01:02;;;;;;;4.43;3.83;;;15.30;99.90;;;;;;5018637;28;20571;-74
2022/07/16 05:03:46;;;;;;;5.20;3.10;;;15.30;99.90;;;;;;5024647;28;20208;-73
2022/07/16 05:06:30;;;;;;;3.53;3.20;;;15.30;99.90;;;;;;5022599;28;20296;-73
2022/07/16 05:09:14;;;;;;;5.33;3.70;;;15.30;99.90;;;;;;5032251;28;20186;-72
2022/07/16 05:11:58;;;;;;;5.33;3.47;;;15.30;99.90;;;;;;5030496;28;20188;-72
2022/07/16 05:14:42;;;;;;;7.40;3.77;;;15.30;99.90;;;;;;5024538;28;20674;-72
2022/07/16 05:17:26;;;;;;;5.80;3.77;;;15.30;99.90;;;;;;5029077;28;20215;-72
2022/07/16 05:20:11;;;;;;;4.47;3.67;;;15.30;99.90;;;;;;5025196;28;20187;-73
2022/07/16 05:22:56;;;;;;;6.97;3.70;;;15.40;99.90;;;;;;5035412;28;20271;-72
2022/07/16 05:25:40;;;;;;;6.63;3.90;;;15.40;99.90;;;;;;5026381;28;20211;-73
2022/07/16 05:28:24;;;;;;;7.47;3.90;;;15.40;99.90;;;;;;5021807;28;20248;-72
2022/07/16 05:31:09;;;;;;;5.27;3.70;;;15.40;99.90;;;;;;5021376;28;20312;-73
2022/07/16 05:33:53;;;;;;;8.20;3.63;;;15.40;99.90;;;;;;5020876;28;20381;-72
2022/07/16 05:36:37;;;;;;;8.10;3.90;;;15.40;99.90;;;;;;5022729;28;20258;-72
2022/07/16 05:39:21;;;;;;;6.70;3.43;;;15.50;99.90;;;;;;5015995;28;20183;-72
2022/07/16 05:42:05;;;;;;;8.33;3.40;;;15.50;99.90;;;;;;5029342;28;20187;-73
2022/07/16 05:44:49;;;;;;;4.90;3.07;;;15.60;99.90;;;;;;5020292;28;20179;-73
2022/07/16 05:47:33;;;;;;;6.00;3.43;;;15.60;99.90;;;;;;5029153;28;20203;-73
2022/07/16 05:50:18;;;;;;;7.00;3.40;;;15.60;99.90;;;;;;5025480;28;20260;-72
2022/07/16 05:53:02;;;;;;;4.70;3.40;;;15.60;99.90;;;;;;5028613;28;20291;-72
2022/07/16 05:55:46;;;;;;;6.17;2.90;;;15.80;99.90;;;;;;5030179;28;20223;-75
2022/07/16 05:58:30;;;;;;;8.17;2.70;;;15.70;99.90;;;;;;5030349;28;20247;-74
2022/07/16 06:01:14;;;;;;;5.23;2.60;;;15.80;99.90;;;;;;5034643;28;20293;-74
2022/07/16 06:03:58;;;;;;;2.33;2.13;;;15.80;99.90;;;;;;5022576;28;20259;-73
2022/07/16 06:06:42;;;;;;;3.93;1.67;;;15.80;99.90;;;;;;5022675;28;20239;-73
2022/07/16 06:09:26;;;;;;;7.10;2.70;;;15.80;99.90;;;;;;5026233;28;20247;-72
2022/07/16 06:12:10;;;;;;;6.43;2.23;;;15.90;99.90;;;;;;5026239;28;20555;-72
2022/07/16 06:14:54;;;;;;;6.67;2.47;;;15.90;99.90;;;;;;5029792;28;20554;-72
2022/07/16 06:17:39;;;;;;;3.27;1.80;;;15.90;99.90;;;;;;5030257;28;20215;-72
2022/07/16 06:20:23;;;;;;;3.40;1.90;;;16.00;99.90;;;;;;5020300;28;20206;-73
2022/07/16 06:23:07;;;;;;;4.20;1.80;;;16.00;99.90;;;;;;5022754;28;20277;-76
2022/07/16 06:25:51;;;;;;;3.77;1.80;;;16.10;99.90;;;;;;5027147;28;20215;-73
2022/07/16 06:28:36;;;;;;;2.97;2.07;;;16.10;99.90;;;;;;5039547;28;20183;-73
2022/07/16 06:31:20;;;;;;;3.73;1.90;;;16.10;99.90;;;;;;5021669;28;20717;-74
2022/07/16 06:34:04;;;;;;;3.53;1.70;;;16.20;99.90;;;;;;5028875;28;20184;-72
2022/07/16 06:36:48;;;;;;;2.77;1.90;;;16.20;99.90;;;;;;5030131;28;20239;-72
2022/07/16 06:39:32;;;;;;;2.93;1.87;;;16.30;99.90;;;;;;5018191;28;20238;-73
2022/07/16 06:42:16;;;;;;;4.77;2.03;;;16.30;99.90;;;;;;5021624;28;20351;-73
2022/07/16 06:45:00;;;;;;;5.77;1.90;;;16.30;99.90;;;;;;5020888;28;20187;-73
2022/07/16 06:47:44;;;;;;;6.30;2.10;;;16.40;99.90;;;;;;5022971;28;20204;-72
2022/07/16 06:50:29;;;;;;;5.87;1.83;;;16.30;99.90;;;;;;5027508;28;20243;-73
2022/07/16 06:53:12;;;;;;;4.23;1.67;;;16.30;99.90;;;;;;5024108;28;20683;-73
2022/07/16 06:55:57;;;;;;;5.93;2.00;;;16.30;99.90;;;;;;5028664;28;20227;-74
2022/07/16 06:58:41;;;;;;;6.53;2.23;;;16.30;99.90;;;;;;5019600;28;20267;-73
2022/07/16 07:01:25;;;;;;;5.07;1.90;;;16.30;99.90;;;;;;5034278;28;20187;-73
2022/07/16 07:04:09;;;;;;;6.40;1.80;;;16.20;99.90;;;;;;5026050;28;20234;-73
2022/07/16 07:06:53;;;;;;;5.20;2.07;;;16.20;99.90;;;;;;5034802;28;20226;-72
2022/07/16 07:09:37;;;;;;;6.53;1.70;;;16.20;99.90;;;;;;5027289;28;20186;-73
2022/07/16 07:12:21;;;;;;;5.50;1.77;;;16.20;99.90;;;;;;5022109;28;20195;-73
2022/07/16 07:15:06;;;;;;;5.60;1.77;;;16.20;99.90;;;;;;5021071;28;20235;-73
2022/07/16 07:17:51;;;;;;;4.73;1.40;;;16.10;99.90;;;;;;5025393;28;20291;-72
2022/07/16 07:20:35;;;;;;;6.50;1.97;;;16.10;99.90;;;;;;5024341;28;20234;-73
2022/07/16 07:23:19;;;;;;;3.17;1.30;;;16.10;99.90;;;;;;5030209;28;20217;-73
2022/07/16 07:26:03;;;;;;;6.50;1.47;;;16.10;99.90;;;;;;5023081;28;20227;-72
2022/07/16 07:28:48;;;;;;;10.43;1.70;;;16.30;99.90;;;;;;5033372;28;20199;-73
2022/07/16 07:31:32;;;;;;;4.20;1.47;;;16.40;99.90;;;;;;5031335;28;20560;-72
2022/07/16 07:34:16;;;;;;;12.63;1.60;;;16.40;99.90;;;;;;5025715;28;20233;-73
2022/07/16 07:37:00;;;;;;;5.80;1.40;;;16.50;99.90;;;;;;5021286;28;20220;-71
2022/07/16 07:39:44;;;;;;;7.07;2.10;;;16.50;99.90;;;;;;5023619;28;20254;-73
2022/07/16 07:42:28;;;;;;;6.33;1.13;;;16.50;99.90;;;;;;5024979;28;20294;-73
2022/07/16 07:45:13;;;;;;;6.90;1.40;;;16.60;99.90;;;;;;5024977;28;20183;-73
2022/07/16 07:47:57;;;;;;;3.90;0.93;;;16.60;99.90;;;;;;5025217;28;20195;-73
2022/07/16 07:50:41;;;;;;;2.27;0.97;;;16.50;99.90;;;;;;5036473;28;20191;-73
2022/07/16 07:53:26;;;;;;;4.77;1.27;;;16.50;99.90;;;;;;5027955;28;20234;-73
2022/07/16 07:56:10;;;;;;;3.40;0.90;;;16.50;99.90;;;;;;5037933;28;20245;-73
2022/07/16 07:58:55;;;;;;;7.37;1.30;;;16.50;99.90;;;;;;5025149;28;20258;-73
2022/07/16 08:01:39;;;;;;;5.63;1.10;;;16.50;99.90;;;;;;5014534;28;20196;-73
2022/07/16 08:04:23;;;;;;;7.33;1.10;;;16.50;99.90;;;;;;5026534;28;20219;-73
2022/07/16 08:07:07;;;;;;;8.23;1.37;;;16.50;99.90;;;;;;5027485;28;20289;-75
2022/07/16 08:09:52;;;;;;;4.50;0.90;;;16.60;99.90;;;;;;5024192;28;20274;-76
2022/07/16 08:12:37;;;;;;;6.23;1.07;;;16.70;99.90;;;;;;5024668;28;20234;-74
2022/07/16 08:15:21;;;;;;;6.40;1.10;;;16.70;99.90;;;;;;5028139;28;20269;-75
2022/07/16 08:18:05;;;;;;;6.87;1.33;;;16.80;99.90;;;;;;5022329;28;20255;-74
2022/07/16 08:20:49;;;;;;;3.70;0.80;;;17.00;99.90;;;;;;5026713;28;20202;-75
2022/07/16 08:26:37;;;;;;;8.27;1.00;;;16.90;99.90;;;;;;5029333;28;20221;-75
2022/07/16 08:29:22;;;;;;;2.83;0.70;;;16.80;99.90;;;;;;5017230;28;20195;-74
2022/07/16 08:32:06;;;;;;;3.97;0.90;;;16.90;99.90;;;;;;5031881;28;20210;-75
2022/07/16 08:34:50;;;;;;;3.67;0.87;;;16.90;99.90;;;;;;5032762;28;20225;-75
2022/07/16 08:37:40;;;;;;;2.10;0.80;;;16.90;99.90;;;;;;5031292;28;20265;-75
2022/07/16 08:40:25;;;;;;;7.57;0.97;;;17.00;99.90;;;;;;5024916;28;20215;-75
2022/07/16 08:43:09;;;;;;;4.17;0.83;;;17.20;99.90;;;;;;5024557;28;20183;-74
2022/07/16 08:45:54;;;;;;;4.10;0.87;;;17.30;99.90;;;;;;5025560;28;20206;-75
2022/07/16 08:48:39;;;;;;;2.23;0.70;;;17.30;99.90;;;;;;5022165;28;20323;-74
2022/07/16 08:51:31;;;;;;;3.50;0.80;;;17.30;99.90;;;;;;5021272;28;20235;-75
2022/07/16 08:54:20;;;;;;;3.97;0.70;;;17.30;99.90;;;;;;5017683;28;20192;-74
2022/07/16 08:57:05;;;;;;;5.50;0.70;;;17.40;99.90;;;;;;5027611;28;20222;-73
2022/07/16 08:59:51;;;;;;;3.20;0.80;;;17.40;99.90;;;;;;5026255;28;20234;-73
2022/07/16 09:02:35;;;;;;;4.57;0.80;;;17.40;99.90;;;;;;5023516;28;20192;-74
2022/07/16 09:05:19;;;;;;;1.90;0.67;;;17.50;99.90;;;;;;5021548;28;20187;-73
2022/07/16 09:08:04;;;;;;;2.03;0.70;;;17.60;99.90;;;;;;5017349;28;20203;-73
2022/07/16 09:10:48;;;;;;;2.60;0.73;;;17.70;99.90;;;;;;5026900;28;20194;-73
2022/07/16 09:13:32;;;;;;;3.43;1.00;;;17.80;99.90;;;;;;5022599;28;20199;-73
2022/07/16 09:16:45;;;;;;;5.10;0.90;;;17.70;99.90;;;;;;5019389;28;20311;-73
2022/07/16 09:19:30;;;;;;;3.43;0.83;;;17.70;99.90;;;;;;5025098;28;20205;-72
2022/07/16 09:22:15;;;;;;;3.00;0.90;;;17.70;99.90;;;;;;5028374;28;20179;-73
2022/07/16 09:24:59;;;;;;;2.37;0.60;;;17.80;99.90;;;;;;5022888;28;20226;-72
2022/07/16 09:27:44;;;;;;;7.23;1.00;;;17.80;99.90;;;;;;5035985;28;20198;-72
2022/07/16 09:30:28;;;;;;;4.10;0.90;;;18.00;99.90;;;;;;5034426;28;20238;-74
2022/07/16 09:33:19;;;;;;;3.07;0.90;;;17.90;99.90;;;;;;5023944;28;20203;-73
2022/07/16 09:36:11;;;;;;;5.87;1.00;;;17.90;99.90;;;;;;5033076;28;20234;-73
2022/07/16 09:38:56;;;;;;;3.37;1.10;;;18.00;99.90;;;;;;5036995;28;20234;-72
2022/07/16 09:41:46;;;;;;;4.90;0.80;;;18.00;99.90;;;;;;5031276;28;20263;-72
2022/07/16 09:44:34;;;;;;;4.10;0.90;;;18.00;99.90;;;;;;5027089;28;20550;-72
2022/07/16 09:47:20;;;;;;;1.53;0.70;;;18.10;99.90;;;;;;5031131;28;20211;-73
2022/07/16 09:50:04;;;;;;;2.33;0.80;;;18.20;99.90;;;;;;5032290;28;20666;-72
2022/07/16 09:52:48;;;;;;;2.73;0.93;;;18.30;99.90;;;;;;5030807;28;20207;-74
2022/07/16 09:55:32;;;;;;;2.97;0.80;;;18.30;99.90;;;;;;5051099;28;20257;-73
2022/07/16 09:58:16;;;;;;;3.10;0.97;;;18.40;99.90;;;;;;5037298;28;20258;-72
2022/07/16 10:01:02;;;;;;;2.87;0.90;;;18.40;99.90;;;;;;5037911;28;20217;-73
2022/07/16 10:03:47;;;;;;;3.97;1.13;;;18.60;99.90;;;;;;5023990;28;20195;-74
2022/07/16 10:06:31;;;;;;;4.40;0.97;;;18.60;99.90;;;;;;5029688;28;20223;-72
2022/07/16 10:09:15;;;;;;;7.13;0.97;;;18.60;99.90;;;;;;5034569;28;20701;-73
2022/07/16 10:12:08;;;;;;;3.30;0.60;;;18.60;99.90;;;;;;5034275;28;20191;-75
2022/07/16 10:14:54;;;;;;;2.90;0.90;;;18.50;99.90;;;;;;5040830;28;20187;-72
2022/07/16 10:17:39;;;;;;;3.43;0.80;;;18.50;99.90;;;;;;5027615;28;20226;-73
2022/07/16 10:20:23;;;;;;;3.57;0.90;;;18.50;99.90;;;;;;5028795;28;20299;-74
2022/07/16 10:23:07;;;;;;;3.70;0.80;;;18.60;99.90;;;;;;5022185;28;20195;-74
2022/07/16 10:25:59;;;;;;;3.30;0.80;;;18.60;99.90;;;;;;5039763;28;20219;-74
2022/07/16 10:28:51;;;;;;;2.07;0.63;;;18.60;99.90;;;;;;5033816;28;20564;-72
2022/07/16 10:34:50;;;;;;;4.37;0.80;;;18.50;99.90;;;;;;5028270;28;20214;-73
2022/07/16 10:37:39;;;;;;;4.50;0.80;;;18.60;99.90;;;;;;5033284;28;20270;-73
2022/07/16 10:40:24;;;;;;;4.63;0.93;;;18.70;99.90;;;;;;5021530;28;20299;-72
2022/07/16 10:43:16;;;;;;;3.53;0.75;;;18.80;99.90;;;;;;5028216;28;20237;-71
2022/07/16 10:46:03;;;;;;;3.45;0.60;;;18.90;99.90;;;;;;5019811;28;20212;-72
2022/07/16 10:48:47;;;;;;;5.53;0.73;;;18.90;99.90;;;;;;5019286;28;20703;-73
2022/07/16 10:51:31;;;;;;;1.30;0.80;;;18.90;99.90;;;;;;5028482;28;20230;-73
2022/07/16 10:54:15;;;;;;;4.85;0.65;;;19.10;99.90;;;;;;5024229;28;20306;-74
2022/07/16 10:57:02;;;;;;;3.57;0.70;;;19.20;99.90;;;;;;5024690;28;20235;-72
2022/07/16 10:59:47;;;;;;;3.33;0.90;;;19.10;99.90;;;;;;5034138;28;20713;-74
2022/07/16 11:02:41;;;;;;;3.80;1.00;;;19.20;99.90;;;;;;5020338;28;20238;-73
2022/07/16 11:05:27;;;;;;;3.70;0.70;;;19.20;99.90;;;;;;5026498;28;20185;-74
2022/07/16 11:08:12;;;;;;;3.20;0.90;;;19.30;99.90;;;;;;5027530;28;20198;-74
2022/07/16 11:10:57;;;;;;;1.23;0.60;;;19.30;99.90;;;;;;5024257;28;20242;-73
2022/07/16 11:13:42;;;;;;;2.22;0.70;;;19.30;99.90;;;;;;5032071;28;20541;-74
2022/07/16 11:16:27;;;;;;;2.67;0.67;;;19.20;99.90;;;;;;5024670;28;20237;-73
2022/07/16 11:19:11;;;;;;;2.75;0.90;;;19.20;99.90;;;;;;5022188;28;20278;-73
2022/07/16 11:22:01;;;;;;;2.05;0.70;;;19.20;99.90;;;;;;5037930;28;20270;-73
2022/07/16 11:24:48;;;;;;;2.17;0.80;;;19.20;99.90;;;;;;5033391;28;20226;-73
2022/07/16 11:27:35;;;;;;;5.00;0.77;;;19.30;99.90;;;;;;5030199;28;20257;-74
2022/07/16 11:30:19;;;;;;;3.25;0.75;;;19.40;99.90;;;;;;5024864;28;20184;-74
2022/07/16 11:33:03;;;;;;;4.25;0.75;;;19.40;99.90;;;;;;5029253;28;20191;-73
2022/07/16 11:36:02;;;;;;;2.60;0.80;;;19.30;99.90;;;;;;5035548;28;20277;-74
2022/07/16 11:38:46;;;;;;;2.17;0.75;;;19.30;99.90;;;;;;5019862;28;20195;-73
2022/07/16 11:41:32;;;;;;;1.92;0.50;;;19.40;99.90;;;;;;5023383;28;20187;-74
2022/07/16 11:44:22;;;;;;;3.53;0.85;;;19.60;99.90;;;;;;5040076;28;20238;-74
2022/07/16 11:47:11;;;;;;;4.90;1.17;;;19.70;99.90;;;;;;5026679;28;20265;-74
2022/07/16 11:49:55;;;;;;;2.80;1.10;;;19.70;99.90;;;;;;5030327;28;20194;-73
2022/07/16 11:52:45;;;;;;;3.75;1.17;;;19.70;99.90;;;;;;5024417;28;20227;-73
2022/07/16 11:55:29;;;;;;;2.75;0.70;;;19.70;99.90;;;;;;5014778;28;20702;-73
2022/07/16 11:58:17;;;;;;;2.47;0.82;;;19.70;99.90;;;;;;5018139;28;20259;-72
2022/07/16 12:01:01;;;;;;;3.05;0.82;;;19.80;99.90;;;;;;5019957;28;20187;-74
2022/07/16 12:03:55;;;;;;;1.50;0.70;;;19.90;99.90;;;;;;5030200;28;20268;-74
2022/07/16 12:06:46;;;;;;;3.92;0.90;;;20.00;99.90;;;;;;5029493;28;20219;-73
2022/07/16 12:09:40;;;;;;;3.55;0.60;;;20.00;99.90;;;;;;5021159;28;20606;-73
2022/07/16 12:12:29;;;;;;;2.83;0.70;;;20.20;99.90;;;;;;5023705;28;20759;-73
2022/07/16 12:15:13;;;;;;;3.90;1.02;;;20.20;99.90;;;;;;5029389;28;20223;-74
2022/07/16 12:18:11;;;;;;;3.78;0.77;;;20.20;99.90;;;;;;5037016;28;20254;-73
2022/07/16 12:21:25;;;;;;;3.38;1.17;;;20.20;99.90;;;;;;5017246;28;20235;-73
2022/07/16 12:24:10;;;;;;;3.92;0.70;;;20.20;99.90;;;;;;5033444;28;20186;-73
2022/07/16 12:26:54;;;;;;;3.03;0.80;;;20.20;99.90;;;;;;5026996;28;20239;-73
2022/07/16 12:29:39;;;;;;;3.03;0.80;;;20.10;99.90;;;;;;5020977;28;20267;-73
2022/07/16 12:32:23;;;;;;;2.88;0.70;;;20.00;99.90;;;;;;5026824;28;20190;-73
2022/07/16 12:35:07;;;;;;;3.78;0.82;;;20.00;99.90;;;;;;5033180;28;20249;-72
2022/07/16 12:37:51;;;;;;;2.67;0.68;;;20.00;99.90;;;;;;5025668;28;20630;-73
2022/07/16 12:40:36;;;;;;;6.65;0.85;;;20.00;99.90;;;;;;5032270;28;20241;-72
2022/07/16 12:43:20;;;;;;;6.07;0.77;;;20.00;99.90;;;;;;5033454;28;20190;-72
2022/07/16 12:46:05;;;;;;;3.25;0.90;;;20.10;99.90;;;;;;5030036;28;20234;-73
2022/07/16 12:48:51;;;;;;;3.85;0.80;;;20.20;99.90;;;;;;5015360;28;20203;-74
2022/07/16 12:51:39;;;;;;;9.43;1.42;;;20.20;99.90;;;;;;5019479;28;20240;-73
2022/07/16 12:54:24;;;;;;;3.83;0.70;;;20.20;99.90;;;;;;5024631;28;20249;-72
2022/07/16 13:00:11;;;;;;;5.47;0.88;;;20.20;99.90;;;;;;5038512;28;20202;-74
2022/07/16 13:02:56;;;;;;;5.05;1.00;;;20.20;99.90;;;;;;5031443;28;20187;-73
2022/07/16 13:05:40;;;;;;;6.65;1.00;;;20.30;99.90;;;;;;5028572;28;20215;-72
2022/07/16 13:08:24;;;;;;;3.63;0.77;;;20.40;99.90;;;;;;5025820;28;20203;-73
2022/07/16 13:11:12;;;;;;;3.60;0.98;;;20.40;99.90;;;;;;5027897;28;20185;-72
2022/07/16 13:13:56;;;;;;;2.97;1.00;;;20.40;99.90;;;;;;5034192;28;20186;-72
2022/07/16 13:16:41;;;;;;;2.88;0.60;;;20.40;99.90;;;;;;5032200;28;20210;-73
2022/07/16 13:19:25;;;;;;;2.15;0.88;;;20.50;99.90;;;;;;5025953;28;20206;-72
2022/07/16 13:22:09;;;;;;;6.45;1.00;;;20.60;99.90;;;;;;5035286;28;20300;-73
2022/07/16 13:24:54;;;;;;;6.13;1.10;;;20.60;99.90;;;;;;5032498;28;20631;-73
2022/07/16 13:27:38;;;;;;;2.92;0.85;;;20.70;99.90;;;;;;5031161;28;20240;-73
2022/07/16 13:30:22;;;;;;;4.03;1.00;;;20.70;99.90;;;;;;5035581;28;20210;-72
2022/07/16 13:33:06;;;;;;;5.07;1.15;;;20.60;99.90;;;;;;5033982;28;20250;-73
2022/07/16 13:35:50;;;;;;;4.47;1.10;;;20.60;99.90;;;;;;5036192;28;20274;-72
2022/07/16 13:38:39;;;;;;;2.22;1.00;;;20.60;99.90;;;;;;5028239;28;20218;-73
2022/07/16 13:41:23;;;;;;;2.47;0.75;;;20.50;99.90;;;;;;5028903;28;20315;-73
2022/07/16 13:44:07;;;;;;;5.38;1.10;;;20.50;99.90;;;;;;5023101;28;20183;-72
2022/07/16 13:46:52;;;;;;;4.47;0.80;;;20.40;99.90;;;;;;5038766;28;20249;-73
2022/07/16 13:49:36;;;;;;;3.90;1.45;;;20.40;99.90;;;;;;5026903;28;20191;-72
2022/07/16 13:52:21;;;;;;;3.10;0.70;;;20.40;99.90;;;;;;5027851;28;20234;-73
2022/07/16 13:55:05;;;;;;;1.58;0.65;;;20.50;99.90;;;;;;5039092;28;20195;-72
2022/07/16 14:00:59;;;;;;;3.78;0.63;;;20.60;99.90;;;;;;5031576;28;20191;-73
2022/07/16 14:03:43;;;;;;;4.65;0.90;;;20.70;99.90;;;;;;5025991;28;20375;-73
2022/07/16 14:06:28;;;;;;;5.18;0.90;;;20.80;99.90;;;;;;5025851;28;20348;-73
2022/07/16 14:09:12;;;;;;;5.00;0.90;;;20.70;99.90;;;;;;5030304;28;20179;-72
2022/07/16 14:11:56;;;;;;;2.83;0.80;;;20.70;99.90;;;;;;5033900;28;20192;-72
2022/07/16 14:14:40;;;;;;;4.18;1.08;;;20.50;99.90;;;;;;5041173;28;20185;-72
2022/07/16 14:17:24;;;;;;;3.63;0.80;;;20.40;99.90;;;;;;5026309;28;20673;-72
2022/07/16 14:20:11;;;;;;;2.22;0.80;;;20.30;99.90;;;;;;5033081;28;20242;-73
2022/07/16 14:22:55;;;;;;;2.63;0.80;;;20.30;99.90;;;;;;5034336;28;20235;-73
2022/07/16 14:25:40;;;;;;;2.72;0.98;;;20.30;99.90;;;;;;5028088;28;20678;-72
2022/07/16 14:28:26;;;;;;;2.78;0.70;;;20.30;99.90;;;;;;5033383;28;20276;-72
2022/07/16 14:31:10;;;;;;;6.03;0.80;;;20.30;99.90;;;;;;5030089;28;20218;-73
2022/07/16 14:33:54;;;;;;;4.88;0.77;;;20.30;99.90;;;;;;5024774;28;20200;-73
2022/07/16 14:36:38;;;;;;;5.03;0.95;;;20.40;99.90;;;;;;5020988;28;20299;-72
2022/07/16 14:39:22;;;;;;;2.75;1.00;;;20.40;99.90;;;;;;5025131;28;20188;-72